createdAt,value
2018-07-28T00:01:25.335Z,15.70
2018-07-28T00:03:54.713Z,15.70
2018-07-28T00:06:23.967Z,15.80
2018-07-28T00:08:53.159Z,15.90
2018-07-28T00:11:22.242Z,16.00
2018-07-28T00:13:51.474Z,16.10
2018-07-28T00:16:20.653Z,16.10
2018-07-28T00:18:50.019Z,16.00
2018-07-28T00:21:19.244Z,15.80
2018-07-28T00:23:48.474Z,15.80
2018-07-28T00:26:18.133Z,15.80
2018-07-28T00:28:49.200Z,15.70
2018-07-28T00:31:18.254Z,15.60
2018-07-28T00:33:47.444Z,15.50
2018-07-28T00:36:16.635Z,15.60
2018-07-28T00:38:45.736Z,15.60
2018-07-28T00:41:14.755Z,15.80
2018-07-28T00:43:44.109Z,15.60
2018-07-28T00:46:13.339Z,15.70
2018-07-28T00:48:42.950Z,15.70
2018-07-28T00:51:12.216Z,15.80
2018-07-28T00:53:41.330Z,15.90
2018-07-28T00:56:10.465Z,15.90
2018-07-28T00:58:39.691Z,15.90
2018-07-28T01:01:08.827Z,15.90
2018-07-28T01:03:37.763Z,15.80
2018-07-28T01:06:06.839Z,15.80
2018-07-28T01:08:36.200Z,15.60
2018-07-28T01:11:05.064Z,15.60
2018-07-28T01:13:34.506Z,15.60
2018-07-28T01:16:03.607Z,15.60
2018-07-28T01:18:32.857Z,15.70
2018-07-28T01:21:02.043Z,15.60
2018-07-28T01:23:31.213Z,15.50
2018-07-28T01:26:00.375Z,15.30
2018-07-28T01:28:29.848Z,15.40
2018-07-28T01:33:27.808Z,15.40
2018-07-28T01:35:56.981Z,15.50
2018-07-28T01:38:26.449Z,15.40
2018-07-28T01:40:55.941Z,15.30
2018-07-28T01:43:25.163Z,15.30
2018-07-28T01:45:54.307Z,15.40
2018-07-28T01:48:23.457Z,15.40
2018-07-28T01:50:52.748Z,15.40
2018-07-28T01:53:21.846Z,15.50
2018-07-28T01:55:50.833Z,15.40
2018-07-28T01:58:20.126Z,15.30
2018-07-28T02:00:49.132Z,15.30
2018-07-28T02:03:18.567Z,15.30
2018-07-28T02:05:47.883Z,15.40
2018-07-28T02:08:17.303Z,15.40
2018-07-28T02:10:46.512Z,15.20
2018-07-28T02:13:15.876Z,15.20
2018-07-28T02:15:45.097Z,15.30
2018-07-28T02:20:43.504Z,15.00
2018-07-28T02:25:41.659Z,14.80
2018-07-28T02:28:10.843Z,14.80
2018-07-28T02:30:40.168Z,14.80
2018-07-28T02:33:09.212Z,14.80
2018-07-28T02:35:38.549Z,14.90
2018-07-28T02:38:07.709Z,15.00
2018-07-28T02:40:36.701Z,14.90
2018-07-28T02:43:06.215Z,15.00
2018-07-28T02:45:35.315Z,15.00
2018-07-28T02:48:04.640Z,15.00
2018-07-28T02:50:34.076Z,15.10
2018-07-28T02:53:03.468Z,15.20
2018-07-28T02:55:32.827Z,15.10
2018-07-28T02:58:02.444Z,15.20
2018-07-28T03:00:31.646Z,15.20
2018-07-28T03:03:00.813Z,15.10
2018-07-28T03:05:30.288Z,15.10
2018-07-28T03:08:00.126Z,15.20
2018-07-28T03:10:29.457Z,15.20
2018-07-28T03:12:59.058Z,15.20
2018-07-28T03:15:32.536Z,15.10
2018-07-28T03:18:03.503Z,15.20
2018-07-28T03:20:32.935Z,15.20
2018-07-28T03:23:03.059Z,15.20
2018-07-28T03:25:32.248Z,15.20
2018-07-28T03:30:30.442Z,15.00
2018-07-28T03:32:59.837Z,15.10
2018-07-28T03:35:29.051Z,15.20
2018-07-28T03:37:58.044Z,15.10
2018-07-28T03:40:27.278Z,15.00
2018-07-28T03:42:56.363Z,15.00
2018-07-28T03:45:25.354Z,15.00
2018-07-28T03:47:54.752Z,15.10
2018-07-28T03:50:23.985Z,15.20
2018-07-28T03:52:53.221Z,15.30
2018-07-28T03:55:22.385Z,15.30
2018-07-28T03:57:51.719Z,15.30
2018-07-28T04:00:21.243Z,15.40
2018-07-28T04:02:50.405Z,15.50
2018-07-28T04:05:20.485Z,15.50
2018-07-28T04:07:49.770Z,15.60
2018-07-28T04:10:18.839Z,15.60
2018-07-28T04:12:48.156Z,15.70
2018-07-28T04:15:17.707Z,15.70
2018-07-28T04:17:54.984Z,15.70
2018-07-28T04:20:25.193Z,15.80
2018-07-28T04:22:54.704Z,15.90
2018-07-28T04:25:24.195Z,15.70
2018-07-28T04:27:53.399Z,15.60
2018-07-28T04:30:22.567Z,15.60
2018-07-28T04:32:51.905Z,15.70
2018-07-28T04:35:21.079Z,15.80
2018-07-28T04:37:50.291Z,15.70
2018-07-28T04:40:19.596Z,15.80
2018-07-28T04:42:48.815Z,15.90
2018-07-28T04:45:18.072Z,16.10
2018-07-28T04:47:47.143Z,16.00
2018-07-28T04:50:16.629Z,16.00
2018-07-28T04:52:45.734Z,16.10
2018-07-28T04:55:14.976Z,16.30
2018-07-28T04:57:44.472Z,16.30
2018-07-28T05:00:13.673Z,16.40
2018-07-28T05:02:42.880Z,16.30
2018-07-28T05:05:12.425Z,16.30
2018-07-28T05:07:41.732Z,16.20
2018-07-28T05:10:10.985Z,16.30
2018-07-28T05:12:40.364Z,16.50
2018-07-28T05:15:09.452Z,16.20
2018-07-28T05:17:38.396Z,16.10
2018-07-28T05:20:07.617Z,16.20
2018-07-28T05:22:36.831Z,16.40
2018-07-28T05:25:06.159Z,16.40
2018-07-28T05:27:35.348Z,16.50
2018-07-28T05:30:05.972Z,16.70
2018-07-28T05:32:35.932Z,16.80
2018-07-28T05:35:06.235Z,16.90
2018-07-28T05:37:35.488Z,17.00
2018-07-28T05:40:04.621Z,16.90
2018-07-28T05:42:33.895Z,16.80
2018-07-28T05:45:03.304Z,16.80
2018-07-28T05:47:32.525Z,16.70
2018-07-28T05:50:01.568Z,17.00
2018-07-28T05:52:30.680Z,17.00
2018-07-28T05:55:00.025Z,17.20
2018-07-28T05:57:29.219Z,17.40
2018-07-28T05:59:58.856Z,17.30
2018-07-28T06:02:28.531Z,17.10
2018-07-28T06:04:58.248Z,17.40
2018-07-28T06:07:27.638Z,17.60
2018-07-28T06:09:57.029Z,17.80
2018-07-28T06:12:26.616Z,17.90
2018-07-28T06:14:55.747Z,18.10
2018-07-28T06:17:25.097Z,18.00
2018-07-28T06:19:54.402Z,18.10
2018-07-28T06:22:23.732Z,18.10
2018-07-28T06:24:52.922Z,18.40
2018-07-28T06:27:22.394Z,18.70
2018-07-28T06:29:51.548Z,18.80
2018-07-28T06:32:20.585Z,19.00
2018-07-28T06:34:49.726Z,19.20
2018-07-28T06:37:19.134Z,19.40
2018-07-28T06:39:48.472Z,19.60
2018-07-28T06:42:17.724Z,19.70
2018-07-28T06:44:46.826Z,19.80
2018-07-28T06:47:16.368Z,20.00
2018-07-28T06:49:45.659Z,20.20
2018-07-28T06:52:14.972Z,20.40
2018-07-28T06:54:44.294Z,20.60
2018-07-28T06:57:13.725Z,20.70
2018-07-28T06:59:42.942Z,20.90
2018-07-28T07:02:12.397Z,20.90
2018-07-28T07:04:41.904Z,21.20
2018-07-28T07:07:11.256Z,21.40
2018-07-28T07:09:40.736Z,21.90
2018-07-28T07:12:09.879Z,22.00
2018-07-28T07:14:39.094Z,22.20
2018-07-28T07:17:08.449Z,22.40
2018-07-28T07:19:37.493Z,22.30
2018-07-28T07:22:06.900Z,22.50
2018-07-28T07:24:36.168Z,22.60
2018-07-28T07:27:08.261Z,22.80
2018-07-28T07:29:37.338Z,23.00
2018-07-28T07:32:06.458Z,23.20
2018-07-28T07:34:37.303Z,23.10
2018-07-28T07:37:07.416Z,23.20
2018-07-28T07:39:39.105Z,23.50
2018-07-28T07:42:08.570Z,23.70
2018-07-28T07:44:38.068Z,24.00
2018-07-28T07:47:09.175Z,23.80
2018-07-28T07:49:38.591Z,23.90
2018-07-28T07:52:08.001Z,24.30
2018-07-28T07:54:37.936Z,24.60
2018-07-28T07:57:08.391Z,24.80
2018-07-28T07:59:38.162Z,24.90
2018-07-28T08:02:08.515Z,25.00
2018-07-28T08:04:37.719Z,25.20
2018-07-28T08:07:07.376Z,25.50
2018-07-28T08:09:36.581Z,25.60
2018-07-28T08:12:06.083Z,25.70
2018-07-28T08:14:35.384Z,25.80
2018-07-28T08:17:04.474Z,25.90
2018-07-28T08:19:33.656Z,25.90
2018-07-28T08:22:02.881Z,25.90
2018-07-28T08:24:32.133Z,25.90
2018-07-28T08:27:01.347Z,26.30
2018-07-28T08:29:30.388Z,26.50
2018-07-28T08:31:59.641Z,26.20
2018-07-28T08:34:28.301Z,26.50
2018-07-28T08:36:57.300Z,26.80
2018-07-28T08:39:26.670Z,26.80
2018-07-28T08:41:55.396Z,26.90
2018-07-28T08:44:24.940Z,26.70
2018-07-28T08:46:54.071Z,27.00
2018-07-28T08:49:23.772Z,26.90
2018-07-28T08:51:53.019Z,27.10
2018-07-28T08:54:22.482Z,27.20
2018-07-28T08:56:51.780Z,27.20
2018-07-28T09:01:50.019Z,27.60
2018-07-28T09:04:19.264Z,27.40
2018-07-28T09:06:48.436Z,27.70
2018-07-28T09:09:18.077Z,27.70
2018-07-28T09:11:48.100Z,27.70
2018-07-28T09:14:17.983Z,27.90
2018-07-28T09:16:47.944Z,28.10
2018-07-28T09:19:17.225Z,28.30
2018-07-28T09:21:47.257Z,28.40
2018-07-28T09:24:17.024Z,28.50
2018-07-28T09:26:47.169Z,28.30
2018-07-28T09:29:16.677Z,27.90
2018-07-28T09:31:45.933Z,28.20
2018-07-28T09:34:15.376Z,27.80
2018-07-28T09:39:13.691Z,28.30
2018-07-28T09:41:43.143Z,28.40
2018-07-28T09:44:12.343Z,28.50
2018-07-28T09:46:41.747Z,28.50
2018-07-28T09:49:11.297Z,28.80
2018-07-28T09:51:40.679Z,28.60
2018-07-28T09:54:10.170Z,28.90
2018-07-28T09:56:39.556Z,28.20
2018-07-28T09:59:08.974Z,28.60
2018-07-28T10:01:39.946Z,28.90
2018-07-28T10:04:09.404Z,29.00
2018-07-28T10:06:39.320Z,29.20
2018-07-28T10:09:11.396Z,29.30
2018-07-28T10:11:41.095Z,29.40
2018-07-28T10:14:10.413Z,29.00
2018-07-28T10:16:39.560Z,28.10
2018-07-28T10:19:09.246Z,27.60
2018-07-28T10:21:38.728Z,27.90
2018-07-28T10:24:08.440Z,28.20
2018-07-28T10:26:39.481Z,28.70
2018-07-28T10:29:08.881Z,28.60
2018-07-28T10:31:38.400Z,28.60
2018-07-28T10:34:08.049Z,27.70
2018-07-28T10:36:37.751Z,27.00
2018-07-28T10:39:11.948Z,27.70
2018-07-28T10:41:41.556Z,27.50
2018-07-28T10:44:10.929Z,27.40
2018-07-28T10:46:40.678Z,27.10
2018-07-28T10:49:10.822Z,27.50
2018-07-28T10:51:40.096Z,27.50
2018-07-28T10:54:09.465Z,27.30
2018-07-28T10:56:38.695Z,27.00
2018-07-28T10:59:07.915Z,26.90
2018-07-28T11:01:37.275Z,26.90
2018-07-28T11:04:13.234Z,26.60
2018-07-28T11:06:44.126Z,26.60
2018-07-28T11:09:13.549Z,26.60
2018-07-28T11:11:42.923Z,26.40
2018-07-28T11:14:12.174Z,26.70
2018-07-28T11:16:41.510Z,26.40
2018-07-28T11:19:10.726Z,26.80
2018-07-28T11:24:08.745Z,28.80
2018-07-28T11:26:38.064Z,28.90
2018-07-28T11:29:07.173Z,28.70
2018-07-28T11:31:47.158Z,29.00
2018-07-28T11:36:32.073Z,29.70
2018-07-28T11:39:12.130Z,29.70
2018-07-28T11:41:52.153Z,30.10
2018-07-28T11:44:32.296Z,30.20
2018-07-28T11:47:01.408Z,30.60
2018-07-28T11:49:30.608Z,30.20
2018-07-28T11:51:59.714Z,29.50
2018-07-28T11:54:29.096Z,29.00
2018-07-28T11:56:59.340Z,28.40
2018-07-28T11:59:28.843Z,28.00
2018-07-28T12:01:58.286Z,28.00
2018-07-28T12:04:27.746Z,28.90
2018-07-28T12:06:57.464Z,29.60
2018-07-28T12:09:26.889Z,29.80
2018-07-28T12:11:56.500Z,29.20
2018-07-28T12:14:26.757Z,29.30
2018-07-28T12:16:57.072Z,29.80
2018-07-28T12:19:27.320Z,30.30
2018-07-28T12:21:57.065Z,30.00
2018-07-28T12:24:26.612Z,30.40
2018-07-28T12:26:56.353Z,29.80
2018-07-28T12:29:25.787Z,29.10
2018-07-28T12:31:55.093Z,29.00
2018-07-28T12:34:24.360Z,28.50
2018-07-28T12:36:53.763Z,28.80
2018-07-28T12:39:23.098Z,29.30
2018-07-28T12:41:52.946Z,29.90
2018-07-28T12:44:23.097Z,30.00
2018-07-28T12:46:52.842Z,30.30
2018-07-28T12:49:26.085Z,30.10
2018-07-28T12:51:56.493Z,30.50
2018-07-28T12:54:26.185Z,30.70
2018-07-28T12:56:55.219Z,30.90
2018-07-28T12:59:24.765Z,30.70
2018-07-28T13:01:54.391Z,29.80
2018-07-28T13:04:24.162Z,29.50
2018-07-28T13:06:54.357Z,30.00
2018-07-28T13:09:24.640Z,29.90
2018-07-28T13:11:54.796Z,30.50
2018-07-28T13:14:26.102Z,30.30
2018-07-28T13:16:55.717Z,29.80
2018-07-28T13:19:24.957Z,29.80
2018-07-28T13:21:54.844Z,29.80
2018-07-28T13:24:24.001Z,30.60
2018-07-28T13:26:53.474Z,30.10
2018-07-28T13:31:52.104Z,30.40
2018-07-28T13:34:21.428Z,29.80
2018-07-28T13:36:50.890Z,30.60
2018-07-28T13:39:20.339Z,30.00
2018-07-28T13:41:49.669Z,30.00
2018-07-28T13:44:19.172Z,30.50
2018-07-28T13:46:48.612Z,31.00
2018-07-28T13:49:18.019Z,30.50
2018-07-28T13:51:47.169Z,30.80
2018-07-28T13:54:18.232Z,30.10
2018-07-28T13:56:48.056Z,29.80
2018-07-28T13:59:17.669Z,29.10
2018-07-28T14:01:47.120Z,28.80
2018-07-28T14:04:16.339Z,28.50
2018-07-28T14:06:45.599Z,28.50
2018-07-28T14:11:43.816Z,27.70
2018-07-28T14:14:13.120Z,27.50
2018-07-28T14:16:42.313Z,27.20
2018-07-28T14:19:11.665Z,27.10
2018-07-28T14:21:40.719Z,27.00
2018-07-28T14:24:10.212Z,27.00
2018-07-28T14:26:39.494Z,26.90
2018-07-28T14:29:08.702Z,27.00
2018-07-28T14:31:37.849Z,26.80
2018-07-28T14:34:07.261Z,26.50
2018-07-28T14:36:36.573Z,26.20
2018-07-28T14:39:07.699Z,26.10
2018-07-28T14:41:37.910Z,26.00
2018-07-28T14:44:07.446Z,25.80
2018-07-28T14:46:36.376Z,25.50
2018-07-28T14:49:09.642Z,25.40
2018-07-28T14:51:39.729Z,25.10
2018-07-28T14:54:08.934Z,24.80
2018-07-28T14:56:38.225Z,24.90
2018-07-28T14:59:09.506Z,24.90
2018-07-28T15:01:38.918Z,24.70
2018-07-28T15:04:08.281Z,24.60
2018-07-28T15:06:37.604Z,24.70
2018-07-28T15:09:09.036Z,24.70
2018-07-28T15:11:41.218Z,24.80
2018-07-28T15:14:10.257Z,24.80
2018-07-28T15:16:39.595Z,24.60
2018-07-28T15:19:08.834Z,24.50
2018-07-28T15:21:38.180Z,24.40
2018-07-28T15:24:07.460Z,24.10
2018-07-28T15:26:36.735Z,24.00
2018-07-28T15:29:05.877Z,23.80
2018-07-28T15:31:35.457Z,24.00
2018-07-28T15:34:04.824Z,24.00
2018-07-28T15:36:33.948Z,23.80
2018-07-28T15:39:03.305Z,23.50
2018-07-28T15:41:32.433Z,23.40
2018-07-28T15:44:02.036Z,23.20
2018-07-28T15:46:31.339Z,23.30
2018-07-28T15:49:00.609Z,23.10
2018-07-28T15:51:29.589Z,23.10
2018-07-28T15:53:58.802Z,23.10
2018-07-28T15:56:28.010Z,23.20
2018-07-28T15:58:57.375Z,23.10
2018-07-28T16:01:26.521Z,23.00
2018-07-28T16:03:55.852Z,23.00
2018-07-28T16:06:24.936Z,23.00
2018-07-28T16:08:55.612Z,23.00
2018-07-28T16:11:24.959Z,22.90
2018-07-28T16:13:54.078Z,22.80
2018-07-28T16:16:23.440Z,22.90
2018-07-28T16:18:52.929Z,22.90
2018-07-28T16:21:22.194Z,22.80
2018-07-28T16:23:52.348Z,22.80
2018-07-28T16:26:21.728Z,22.90
2018-07-28T16:31:19.648Z,22.70
2018-07-28T16:33:49.201Z,22.70
2018-07-28T16:36:18.544Z,22.60
2018-07-28T16:41:16.950Z,22.50
2018-07-28T16:43:46.596Z,22.60
2018-07-28T16:46:15.898Z,22.80
2018-07-28T16:48:45.276Z,22.80
2018-07-28T16:51:14.667Z,22.70
2018-07-28T16:53:43.394Z,22.60
2018-07-28T16:56:12.246Z,22.50
2018-07-28T16:58:41.320Z,22.60
2018-07-28T17:01:10.943Z,22.70
2018-07-28T17:03:39.718Z,22.70
2018-07-28T17:06:09.320Z,22.60
2018-07-28T17:08:38.865Z,22.70
2018-07-28T17:11:08.191Z,22.50
2018-07-28T17:13:37.749Z,22.60
2018-07-28T17:16:07.031Z,22.70
2018-07-28T17:18:36.413Z,22.80
2018-07-28T17:21:05.849Z,23.00
2018-07-28T17:23:35.264Z,23.00
2018-07-28T17:26:04.377Z,22.90
2018-07-28T17:28:33.611Z,22.90
2018-07-28T17:31:03.162Z,22.80
2018-07-28T17:33:32.466Z,22.60
2018-07-28T17:36:01.887Z,22.40
2018-07-28T17:38:31.078Z,22.40
2018-07-28T17:41:00.397Z,22.60
2018-07-28T17:43:29.315Z,22.50
2018-07-28T17:46:04.544Z,22.40
2018-07-28T17:48:34.611Z,22.40
2018-07-28T17:51:03.897Z,22.20
2018-07-28T17:53:33.095Z,22.20
2018-07-28T17:56:02.438Z,22.30
2018-07-28T18:01:00.743Z,22.40
2018-07-28T18:03:29.828Z,22.30
2018-07-28T18:05:59.403Z,22.30
2018-07-28T18:08:28.786Z,22.20
2018-07-28T18:10:57.792Z,22.10
2018-07-28T18:13:27.721Z,22.10
2018-07-28T18:18:26.280Z,21.90
2018-07-28T18:20:55.889Z,21.90
2018-07-28T18:23:25.269Z,21.90
2018-07-28T18:25:54.998Z,21.80
2018-07-28T18:28:24.519Z,21.70
2018-07-28T18:30:53.838Z,21.70
2018-07-28T18:33:23.061Z,21.60
2018-07-28T18:35:52.708Z,21.50
2018-07-28T18:38:21.898Z,21.40
2018-07-28T18:40:51.401Z,21.30
2018-07-28T18:43:20.727Z,21.00
2018-07-28T18:45:50.173Z,20.90
2018-07-28T18:48:19.105Z,21.00
2018-07-28T18:50:49.770Z,20.90
2018-07-28T18:53:19.336Z,21.00
2018-07-28T18:55:48.632Z,20.90
2018-07-28T18:58:18.263Z,20.80
2018-07-28T19:00:47.462Z,20.80
2018-07-28T19:03:16.921Z,20.70
2018-07-28T19:05:46.278Z,20.70
2018-07-28T19:08:16.301Z,20.60
2018-07-28T19:10:45.581Z,20.60
2018-07-28T19:13:20.087Z,20.40
2018-07-28T19:15:49.464Z,20.50
2018-07-28T19:18:23.804Z,20.50
2018-07-28T19:20:52.911Z,20.40
2018-07-28T19:23:27.478Z,20.40
2018-07-28T19:25:56.892Z,20.30
2018-07-28T19:31:00.102Z,20.10
2018-07-28T19:33:29.155Z,20.00
2018-07-28T19:36:03.593Z,19.90
2018-07-28T19:38:32.767Z,19.90
2018-07-28T19:41:02.164Z,19.80
2018-07-28T19:43:31.942Z,19.80
2018-07-28T19:46:01.193Z,19.90
2018-07-28T19:48:30.683Z,19.90
2018-07-28T19:51:00.141Z,19.80
2018-07-28T19:53:29.299Z,19.70
2018-07-28T19:55:58.509Z,19.70
2018-07-28T19:58:27.764Z,19.60
2018-07-28T20:00:57.169Z,19.60
2018-07-28T20:03:26.303Z,19.60
2018-07-28T20:05:55.842Z,19.60
2018-07-28T20:08:25.251Z,19.60
2018-07-28T20:10:55.052Z,19.60
2018-07-28T20:13:24.323Z,19.60
2018-07-28T20:15:53.789Z,19.50
2018-07-28T20:18:23.018Z,19.40
2018-07-28T20:20:52.282Z,19.20
2018-07-28T20:23:21.714Z,19.20
2018-07-28T20:25:50.928Z,19.10
2018-07-28T20:28:20.123Z,19.10
2018-07-28T20:30:49.560Z,19.10
2018-07-28T20:33:19.750Z,19.20
2018-07-28T20:35:49.152Z,19.20
2018-07-28T20:38:18.449Z,19.10
2018-07-28T20:40:47.630Z,19.10
2018-07-28T20:43:17.080Z,19.10
2018-07-28T20:45:46.533Z,19.00
2018-07-28T20:48:16.349Z,18.90
2018-07-28T20:50:45.507Z,18.80
2018-07-28T20:53:14.975Z,18.80
2018-07-28T20:55:44.508Z,18.70
2018-07-28T20:58:14.703Z,18.50
2018-07-28T21:00:43.827Z,18.40
2018-07-28T21:03:13.091Z,18.40
2018-07-28T21:05:42.293Z,18.40
2018-07-28T21:08:11.493Z,18.40
2018-07-28T21:10:40.932Z,18.40
2018-07-28T21:13:10.156Z,18.30
2018-07-28T21:15:39.380Z,18.30
2018-07-28T21:18:08.532Z,18.20
2018-07-28T21:20:37.947Z,18.30
2018-07-28T21:23:07.232Z,18.30
2018-07-28T21:25:36.599Z,18.30
2018-07-28T21:28:05.904Z,18.30
2018-07-28T21:30:34.996Z,18.10
2018-07-28T21:33:04.240Z,18.20
2018-07-28T21:35:33.463Z,18.10
2018-07-28T21:38:02.945Z,18.10
2018-07-28T21:40:32.067Z,18.20
2018-07-28T21:43:01.297Z,18.20
2018-07-28T21:45:30.524Z,18.20
2018-07-28T21:47:59.917Z,18.10
2018-07-28T21:50:29.043Z,18.00
2018-07-28T21:52:58.246Z,17.90
2018-07-28T21:55:27.417Z,17.80
2018-07-28T21:57:56.864Z,17.80
2018-07-28T22:00:25.985Z,17.80
2018-07-28T22:02:55.199Z,17.80
2018-07-28T22:05:24.428Z,17.90
2018-07-28T22:07:53.615Z,17.90
2018-07-28T22:10:22.996Z,17.80
2018-07-28T22:12:52.441Z,17.70
2018-07-28T22:17:50.857Z,17.70
2018-07-28T22:20:20.404Z,17.70
2018-07-28T22:22:49.708Z,17.60
2018-07-28T22:25:19.448Z,17.40
2018-07-28T22:27:48.728Z,17.50
2018-07-28T22:30:17.799Z,17.50
2018-07-28T22:32:47.008Z,17.50
2018-07-28T22:35:16.235Z,17.40
2018-07-28T22:37:45.644Z,17.40
2018-07-28T22:40:14.908Z,17.40
2018-07-28T22:42:50.669Z,17.30
2018-07-28T22:45:20.794Z,17.30
2018-07-28T22:47:50.090Z,17.40
2018-07-28T22:50:19.122Z,17.30
2018-07-28T22:52:48.360Z,17.30
2018-07-28T22:55:17.799Z,17.30
2018-07-28T22:57:46.976Z,17.30
2018-07-28T23:00:17.064Z,17.30
2018-07-28T23:02:46.291Z,17.20
2018-07-28T23:05:15.475Z,17.20
2018-07-28T23:07:44.629Z,17.00
2018-07-28T23:10:13.921Z,16.90
2018-07-28T23:12:43.229Z,16.90
2018-07-28T23:15:12.344Z,16.90
2018-07-28T23:17:41.818Z,16.90
2018-07-28T23:20:11.067Z,16.70
2018-07-28T23:22:40.233Z,16.70
2018-07-28T23:25:09.467Z,16.70
2018-07-28T23:27:38.622Z,16.80
2018-07-28T23:30:09.399Z,16.80
2018-07-28T23:32:39.057Z,16.90
2018-07-28T23:35:08.619Z,16.80
2018-07-28T23:37:37.813Z,16.90
2018-07-28T23:40:07.140Z,16.90
2018-07-28T23:42:36.300Z,17.00
2018-07-28T23:45:05.515Z,17.00
2018-07-28T23:47:35.470Z,16.90
2018-07-28T23:50:04.636Z,16.80
2018-07-28T23:52:33.894Z,16.80
2018-07-28T23:55:02.951Z,16.80
2018-07-28T23:57:32.052Z,16.70
